Impacts TAF Board
For situational awareness. Not to be used for flight planning purposes.
IDs:

KBPT - Beaumont/SE Texas Rg, TX, US

Issued at 1409 UTC 23 Sep 2020
Updated at 1708 UTC 23 Sep 2020
Potential Impact None Slight Moderate High
Time1653Z 23/18Z 23/19Z 23/20Z 23/21Z 23/22Z 23/23Z 24/00Z 24/01Z 24/02Z 24/03Z 24/04Z 24/05Z 24/06Z>>
Type OBS PRVL PRVL PRVL PRVL PRVL PRVL PRVL PRVL PRVL PRVL PRVL PRVL PRVL
VIS 8 >6 >6 >6 >6 >6 >6 >6 >6 >6 >6 >6 >6 >6
CIG 7 15 15 15 7 7 7 7 15 15 15 15 15 15
Cover BKN OVC OVC OVC OVC OVC OVC OVC OVC OVC OVC OVC OVC OVC
FltCat IFR MVFR MVFR MVFR IFR IFR IFR IFR MVFR MVFR MVFR MVFR MVFR MVFR
WX -- VCSH VCSH VCSH -- -- -- -- -- -- -- -- -- --
WDir 240 290 290 290 330 330 330 330 340 340 340 340 340 340
WSpd 9 10 10 10 10 10 10 10 8 8 8 8 8 8
WGst -- 17 17 17 -- -- -- -- -- -- -- -- -- --
R12/30
XWnd -8 -2 -2 -2 5 5 5 5 5 5 5 5 5 5
XGst -- -3 -3 -3 -- -- -- -- -- -- -- -- -- --
HWnd -4 -10 -10 -10 -9 -9 -9 -9 -6 -6 -6 -6 -6 -6
HGst -- -17 -17 -17 -- -- -- -- -- -- -- -- -- --
R16/34
XWnd -9 -8 -8 -8 -3 -3 -3 -3 -1 -1 -1 -1 -1 -1
XGst -- -14 -14 -14 -- -- -- -- -- -- -- -- -- --
HWnd 2 -6 -6 -6 -10 -10 -10 -10 -8 -8 -8 -8 -8 -8
HGst -- -10 -10 -10 -- -- -- -- -- -- -- -- -- --
Raw TAF
KBPT 231409Z 2314/2412 23008KT P6SM VCSH SCT009 OVC013
  TEMPO 2314/2318 VRB12G18KT 2SM SHRA OVC008
  FM231800 29010G17KT P6SM VCSH OVC015
  FM232100 33010KT P6SM OVC007
  FM240100 34008KT P6SM BKN015 OVC025


Raw METAR
KBPT 231653Z 24009KT 8SM BKN007 BKN036 26/25 A2974 RMK AO2 SLP070 T02610250
KBPT 231600Z 23009KT 10SM SCT007 BKN009 26/24 A2974 RMK AO2 T02560244
KBPT 231553Z 24010KT 10SM SCT007 BKN090 25/24 A2974 RMK AO2 SLP071 T02500244
KBPT 231459Z 20006KT 10SM BKN007 OVC019 24/24 A2974 RMK AO2 T02440239
KBPT 231453Z 21007KT 10SM OVC011 24/24 A2974 RMK AO2 RAE1356 SLP071 P0000 60006 T02440239 51005
KBPT 231436Z 19006KT 10SM OVC011 24/24 A2974 RMK AO2 RAE1356 P0000 T02440239

METAR Board
Radar Display
Forecast Discussion
For situational awareness. Not to be used for flight planning purposes.